createdAt,value
2023-04-22T00:02:26.041Z,9.13
2023-04-22T00:05:03.015Z,12.00
2023-04-22T00:07:42.409Z,11.20
2023-04-22T00:10:27.132Z,9.68
2023-04-22T00:12:57.350Z,10.70
2023-04-22T00:15:31.641Z,10.40
2023-04-22T00:18:15.532Z,8.07
2023-04-22T00:21:04.095Z,12.55
2023-04-22T00:23:56.234Z,11.05
2023-04-22T00:26:36.900Z,11.88
2023-04-22T00:29:19.281Z,10.90
2023-04-22T00:31:51.660Z,9.32
2023-04-22T00:34:45.770Z,10.95
2023-04-22T00:37:13.739Z,10.07
2023-04-22T00:40:03.631Z,9.15
2023-04-22T00:42:50.960Z,9.65
2023-04-22T00:45:32.196Z,11.93
2023-04-22T00:48:03.122Z,12.73
2023-04-22T00:50:44.786Z,12.48
2023-04-22T00:55:46.847Z,12.88
2023-04-22T00:58:38.589Z,15.65
2023-04-22T01:04:09.513Z,12.10
2023-04-22T01:07:02.518Z,9.95
2023-04-22T01:12:48.668Z,12.45
2023-04-22T01:15:25.795Z,11.07
2023-04-22T01:18:09.309Z,9.45
2023-04-22T01:20:38.568Z,9.93
2023-04-22T01:23:11.623Z,6.70
2023-04-22T01:25:51.048Z,8.63
2023-04-22T01:28:20.173Z,11.40
2023-04-22T01:30:49.868Z,9.70
2023-04-22T01:33:24.183Z,11.27
2023-04-22T01:36:04.514Z,10.95
2023-04-22T01:38:42.270Z,11.35
2023-04-22T01:41:20.263Z,12.80
2023-04-22T01:43:48.570Z,10.68
2023-04-22T01:46:53.911Z,11.85
2023-04-22T01:49:45.001Z,8.13
2023-04-22T01:52:14.996Z,8.85
2023-04-22T01:55:16.188Z,9.98
2023-04-22T01:58:00.476Z,10.82
2023-04-22T02:00:40.655Z,8.10
2023-04-22T02:03:13.717Z,8.07
2023-04-22T02:05:43.820Z,8.15
2023-04-22T02:08:34.973Z,8.15
2023-04-22T02:11:03.052Z,7.70
2023-04-22T02:13:44.310Z,25.05
2023-04-22T02:16:24.945Z,12.30
2023-04-22T02:19:00.187Z,10.53
2023-04-22T02:21:37.166Z,8.65
2023-04-22T02:24:11.368Z,12.10
2023-04-22T02:26:49.044Z,7.68
2023-04-22T02:29:19.148Z,7.60
2023-04-22T02:32:09.192Z,9.98
2023-04-22T02:34:49.733Z,9.20
2023-04-22T02:37:19.363Z,11.57
2023-04-22T02:39:57.721Z,11.32
2023-04-22T02:42:28.782Z,10.68
2023-04-22T02:45:03.245Z,12.65
2023-04-22T02:47:32.288Z,12.18
2023-04-22T02:50:25.303Z,10.98
2023-04-22T02:52:55.525Z,8.43
2023-04-22T02:55:26.229Z,10.32
2023-04-22T02:57:54.289Z,13.90
2023-04-22T03:00:27.556Z,9.35
2023-04-22T03:02:56.945Z,12.40
2023-04-22T03:05:38.555Z,13.70
2023-04-22T03:08:15.662Z,10.55
2023-04-22T03:10:47.883Z,11.27
2023-04-22T03:13:19.956Z,11.40
2023-04-22T03:15:59.232Z,9.88
2023-04-22T03:18:30.847Z,8.48
2023-04-22T03:20:58.838Z,11.40
2023-04-22T03:23:31.228Z,10.02
2023-04-22T03:26:09.638Z,10.15
2023-04-22T03:28:43.543Z,12.90
2023-04-22T03:31:54.696Z,8.43
2023-04-22T03:34:44.539Z,9.93
2023-04-22T03:37:28.055Z,9.05
2023-04-22T03:40:17.587Z,10.80
2023-04-22T03:42:50.849Z,9.88
2023-04-22T03:45:37.516Z,12.50
2023-04-22T03:48:10.910Z,10.88
2023-04-22T03:51:00.799Z,9.57
2023-04-22T03:53:32.952Z,10.13
2023-04-22T03:56:01.140Z,9.80
2023-04-22T03:58:32.602Z,11.88
2023-04-22T04:04:09.553Z,9.75
2023-04-22T04:06:40.617Z,9.40
2023-04-22T04:09:14.982Z,7.88
2023-04-22T04:11:47.330Z,8.38
2023-04-22T04:14:32.776Z,6.60
2023-04-22T04:20:18.776Z,7.65
2023-04-22T04:22:54.822Z,10.90
2023-04-22T04:25:32.548Z,8.00
2023-04-22T04:28:24.298Z,7.93
2023-04-22T04:33:26.521Z,10.93
2023-04-22T04:35:55.742Z,8.73
2023-04-22T04:38:23.867Z,9.55
2023-04-22T04:40:53.329Z,9.52
2023-04-22T04:43:54.597Z,8.85
2023-04-22T04:46:24.886Z,8.63
2023-04-22T04:48:59.339Z,9.27
2023-04-22T04:51:37.372Z,9.73
2023-04-22T04:54:09.845Z,11.82
2023-04-22T04:56:53.295Z,11.75
2023-04-22T04:59:27.612Z,11.27
2023-04-22T05:02:10.386Z,9.20
2023-04-22T05:04:44.280Z,12.35
2023-04-22T05:07:20.580Z,9.07
2023-04-22T05:10:00.715Z,10.98
2023-04-22T05:12:32.174Z,9.75
2023-04-22T05:18:02.511Z,12.10
2023-04-22T05:21:08.025Z,10.57
2023-04-22T05:23:43.497Z,10.02
2023-04-22T05:26:50.190Z,8.70
2023-04-22T05:29:18.231Z,10.35
2023-04-22T05:32:05.686Z,9.57
2023-04-22T05:34:39.967Z,9.32
2023-04-22T05:37:39.909Z,10.13
2023-04-22T05:40:14.044Z,9.07
2023-04-22T05:42:45.420Z,10.80
2023-04-22T05:45:17.041Z,10.73
2023-04-22T05:47:45.222Z,12.70
2023-04-22T05:50:29.148Z,10.82
2023-04-22T05:52:59.141Z,10.88
2023-04-22T05:55:37.143Z,11.45
2023-04-22T05:58:05.457Z,14.35
2023-04-22T06:00:34.505Z,8.40
2023-04-22T06:03:21.201Z,9.07
2023-04-22T06:05:58.636Z,12.93
2023-04-22T06:08:40.948Z,10.43
2023-04-22T06:11:19.669Z,9.52
2023-04-22T06:14:02.683Z,10.05
2023-04-22T06:16:35.746Z,7.20
2023-04-22T06:19:16.805Z,9.63
2023-04-22T06:21:44.842Z,7.78
2023-04-22T06:24:13.202Z,8.88
2023-04-22T06:26:46.683Z,8.00
2023-04-22T06:29:22.029Z,8.85
2023-04-22T06:32:21.247Z,9.80
2023-04-22T06:34:58.426Z,9.52
2023-04-22T06:37:48.349Z,8.75
2023-04-22T06:40:36.863Z,10.30
2023-04-22T06:43:09.986Z,11.63
2023-04-22T06:45:39.284Z,9.82
2023-04-22T06:48:11.153Z,13.20
2023-04-22T06:50:40.148Z,11.88
2023-04-22T06:53:17.608Z,10.73
2023-04-22T06:55:50.129Z,11.10
2023-04-22T06:58:29.338Z,8.55
2023-04-22T07:01:03.842Z,9.75
2023-04-22T07:03:37.122Z,9.55
2023-04-22T07:06:11.656Z,10.63
2023-04-22T07:08:42.552Z,10.27
2023-04-22T07:11:19.953Z,6.68
2023-04-22T07:14:14.069Z,16.85
2023-04-22T07:16:44.445Z,11.45
2023-04-22T07:19:23.139Z,6.32
2023-04-22T07:21:58.459Z,8.55
2023-04-22T07:24:32.471Z,8.93
2023-04-22T07:27:09.841Z,9.85
2023-04-22T07:29:50.084Z,6.63
2023-04-22T07:32:35.508Z,8.25
2023-04-22T07:35:04.628Z,8.18
2023-04-22T07:37:40.642Z,9.25
2023-04-22T07:40:32.044Z,9.73
2023-04-22T07:43:21.918Z,9.88
2023-04-22T07:45:55.044Z,8.52
2023-04-22T07:48:23.483Z,7.38
2023-04-22T07:50:52.898Z,7.78
2023-04-22T07:53:38.510Z,16.10
2023-04-22T07:56:11.510Z,7.32
2023-04-22T07:58:43.758Z,5.55
2023-04-22T08:01:27.295Z,6.57
2023-04-22T08:04:15.731Z,7.75
2023-04-22T08:06:44.392Z,5.63
2023-04-22T08:09:32.044Z,7.40
2023-04-22T08:12:15.853Z,4.97
2023-04-22T08:14:48.216Z,6.13
2023-04-22T08:17:43.605Z,7.18
2023-04-22T08:20:14.053Z,4.85
2023-04-22T08:22:43.632Z,5.37
2023-04-22T08:25:14.951Z,7.40
2023-04-22T08:31:05.740Z,5.78
2023-04-22T08:33:40.292Z,5.63
2023-04-22T08:36:13.407Z,5.13
2023-04-22T08:38:41.410Z,6.38
2023-04-22T08:41:12.650Z,4.93
2023-04-22T08:46:18.998Z,5.72
2023-04-22T08:49:05.526Z,5.82
2023-04-22T08:51:37.354Z,4.95
2023-04-22T08:54:32.069Z,4.13
2023-04-22T08:57:14.730Z,6.10
2023-04-22T09:03:02.270Z,6.32
2023-04-22T09:05:47.065Z,4.50
2023-04-22T09:08:23.653Z,4.57
2023-04-22T09:10:52.974Z,5.70
2023-04-22T09:13:24.492Z,5.53
2023-04-22T09:16:22.736Z,6.72
2023-04-22T09:18:54.785Z,8.13
2023-04-22T09:21:41.117Z,9.00
2023-04-22T09:24:48.256Z,8.13
2023-04-22T09:27:18.660Z,6.18
2023-04-22T09:30:00.729Z,7.67
2023-04-22T09:32:30.771Z,4.40
2023-04-22T09:34:59.775Z,8.13
2023-04-22T09:37:46.502Z,8.27
2023-04-22T09:40:21.275Z,5.88
2023-04-22T09:42:52.651Z,5.63
2023-04-22T09:45:44.621Z,7.80
2023-04-22T09:48:17.245Z,7.88
2023-04-22T09:50:55.381Z,5.50
2023-04-22T09:53:38.598Z,6.70
2023-04-22T09:56:22.113Z,6.25
2023-04-22T09:58:53.696Z,6.68
2023-04-22T10:01:37.447Z,7.45
2023-04-22T10:04:17.532Z,6.32
2023-04-22T10:07:10.663Z,6.13
2023-04-22T10:09:40.410Z,8.15
2023-04-22T10:12:10.894Z,5.47
2023-04-22T10:14:45.264Z,5.00
2023-04-22T10:17:19.566Z,5.70
2023-04-22T10:19:58.178Z,6.18
2023-04-22T10:22:30.506Z,4.93
2023-04-22T10:25:01.643Z,7.85
2023-04-22T10:30:08.687Z,5.72
2023-04-22T10:32:42.877Z,5.63
2023-04-22T10:35:14.278Z,5.18
2023-04-22T10:37:58.891Z,7.28
2023-04-22T10:40:54.074Z,5.72
2023-04-22T10:43:47.034Z,6.93
2023-04-22T10:46:38.607Z,5.68
2023-04-22T10:49:31.789Z,6.30
2023-04-22T10:52:09.334Z,9.32
2023-04-22T10:54:57.950Z,7.95
2023-04-22T10:57:41.425Z,8.05
2023-04-22T11:00:45.774Z,5.63
2023-04-22T11:06:28.817Z,6.32
2023-04-22T11:09:11.787Z,5.93
2023-04-22T11:11:48.360Z,7.57
2023-04-22T11:14:34.550Z,7.70
2023-04-22T11:17:10.890Z,6.15
2023-04-22T11:20:04.960Z,5.60
2023-04-22T11:22:52.785Z,7.03
2023-04-22T11:25:22.822Z,5.30
2023-04-22T11:28:05.333Z,5.57
2023-04-22T11:30:37.577Z,4.65
2023-04-22T11:33:07.666Z,9.23
2023-04-22T11:35:53.304Z,6.30
2023-04-22T11:38:21.133Z,4.15
2023-04-22T11:40:53.311Z,5.00
2023-04-22T11:43:21.302Z,3.30
2023-04-22T11:46:03.815Z,4.63
2023-04-22T11:48:32.096Z,5.07
2023-04-22T11:51:12.819Z,5.97
2023-04-22T11:54:03.677Z,4.97
2023-04-22T11:56:49.983Z,5.32
2023-04-22T11:59:19.058Z,3.95
2023-04-22T12:01:56.196Z,4.65
2023-04-22T12:04:26.151Z,4.15
2023-04-22T12:07:07.426Z,5.32
2023-04-22T12:09:43.752Z,3.75
2023-04-22T12:12:27.550Z,4.30
2023-04-22T12:15:22.636Z,4.60
2023-04-22T12:18:00.118Z,4.55
2023-04-22T12:20:34.140Z,2.97
2023-04-22T12:23:02.421Z,3.45
2023-04-22T12:25:43.968Z,3.35
2023-04-22T12:28:12.747Z,6.13
2023-04-22T12:30:42.903Z,7.25
2023-04-22T12:33:50.055Z,3.93
2023-04-22T12:36:27.491Z,3.42
2023-04-22T12:38:55.430Z,3.30
2023-04-22T12:41:25.304Z,3.80
2023-04-22T12:44:02.814Z,4.38
2023-04-22T12:46:38.296Z,3.28
2023-04-22T12:49:07.512Z,5.18
2023-04-22T12:51:35.577Z,3.35
2023-04-22T12:54:09.080Z,4.65
2023-04-22T12:56:37.617Z,5.85
2023-04-22T12:59:07.528Z,2.67
2023-04-22T13:01:37.546Z,3.17
2023-04-22T13:04:06.974Z,3.03
2023-04-22T13:06:57.525Z,4.70
2023-04-22T13:09:27.649Z,3.25
2023-04-22T13:12:12.248Z,4.47
2023-04-22T13:15:14.448Z,3.08
2023-04-22T13:17:47.157Z,2.78
2023-04-22T13:20:21.278Z,3.90
2023-04-22T13:22:53.580Z,3.47
2023-04-22T13:25:37.643Z,3.90
2023-04-22T13:28:20.136Z,3.70
2023-04-22T13:31:06.667Z,2.92
2023-04-22T13:33:40.934Z,2.53
2023-04-22T13:36:23.031Z,2.45
2023-04-22T13:38:50.993Z,3.03
2023-04-22T13:41:23.549Z,3.13
2023-04-22T13:44:17.808Z,3.15
2023-04-22T13:46:45.910Z,2.35
2023-04-22T13:49:15.264Z,2.75
2023-04-22T13:51:58.367Z,3.97
2023-04-22T13:54:49.136Z,2.65
2023-04-22T13:57:24.450Z,2.70
2023-04-22T14:00:01.948Z,2.75
2023-04-22T14:03:01.483Z,5.50
2023-04-22T14:05:30.895Z,2.67
2023-04-22T14:08:21.936Z,3.10
2023-04-22T14:10:53.208Z,2.30
2023-04-22T14:13:25.112Z,3.33
2023-04-22T14:15:53.255Z,3.13
2023-04-22T14:18:26.215Z,9.52
2023-04-22T14:21:01.713Z,20.52
2023-04-22T14:23:33.649Z,16.92
2023-04-22T14:26:08.574Z,4.78
2023-04-22T14:28:43.773Z,3.17
2023-04-22T14:31:21.015Z,3.15
2023-04-22T14:33:49.354Z,5.03
2023-04-22T14:36:33.778Z,10.95
2023-04-22T14:39:01.702Z,3.13
2023-04-22T14:41:30.755Z,4.30
2023-04-22T14:44:01.074Z,7.05
2023-04-22T14:46:31.248Z,4.97
2023-04-22T14:49:25.097Z,3.17
2023-04-22T14:52:05.824Z,6.45
2023-04-22T14:54:33.995Z,2.80
2023-04-22T14:57:03.214Z,3.50
2023-04-22T14:59:53.993Z,5.43
2023-04-22T15:02:25.306Z,5.80
2023-04-22T15:05:16.980Z,5.90
2023-04-22T15:07:45.257Z,5.13
2023-04-22T15:10:21.006Z,5.90
2023-04-22T15:13:17.121Z,5.28
2023-04-22T15:15:47.341Z,5.95
2023-04-22T15:18:28.808Z,3.58
2023-04-22T15:21:19.845Z,2.83
2023-04-22T15:23:58.064Z,4.82
2023-04-22T15:26:35.567Z,4.15
2023-04-22T15:29:33.686Z,6.97
2023-04-22T15:32:17.608Z,13.85
2023-04-22T15:38:12.992Z,6.07
2023-04-22T15:40:42.210Z,4.47
2023-04-22T15:43:42.602Z,5.15
2023-04-22T15:46:32.387Z,3.10
2023-04-22T15:49:03.265Z,3.72
2023-04-22T15:51:47.134Z,4.45
2023-04-22T15:54:20.163Z,3.30
2023-04-22T15:57:10.246Z,2.83
2023-04-22T15:59:51.532Z,2.33
2023-04-22T16:02:30.798Z,2.50
2023-04-22T16:05:16.734Z,3.58
2023-04-22T16:07:48.686Z,4.47
2023-04-22T16:10:33.031Z,2.72
2023-04-22T16:13:04.215Z,3.38
2023-04-22T16:18:06.898Z,4.30
2023-04-22T16:20:43.489Z,7.90
2023-04-22T16:23:14.590Z,6.05
2023-04-22T16:28:48.427Z,5.85
2023-04-22T16:31:49.678Z,3.05
2023-04-22T16:37:17.198Z,3.55
2023-04-22T16:39:47.943Z,3.38
2023-04-22T16:42:15.913Z,3.78
2023-04-22T16:45:02.333Z,5.72
2023-04-22T16:47:54.539Z,3.55
2023-04-22T16:50:46.918Z,4.18
2023-04-22T16:53:26.022Z,3.13
2023-04-22T16:56:41.088Z,4.65
2023-04-22T16:59:17.664Z,3.03
2023-04-22T17:01:47.793Z,3.65
2023-04-22T17:04:17.296Z,3.80
2023-04-22T17:06:49.934Z,6.03
2023-04-22T17:09:34.595Z,4.72
2023-04-22T17:12:07.678Z,2.45
2023-04-22T17:14:48.658Z,5.05
2023-04-22T17:17:17.786Z,8.05
2023-04-22T17:20:16.401Z,10.60
2023-04-22T17:23:05.209Z,7.80
2023-04-22T17:28:51.143Z,5.68
2023-04-22T17:31:21.510Z,12.32
2023-04-22T17:33:49.388Z,6.03
2023-04-22T17:36:26.982Z,4.22
2023-04-22T17:38:54.922Z,9.35
2023-04-22T17:41:25.076Z,7.85
2023-04-22T17:44:10.345Z,4.77
2023-04-22T17:46:45.754Z,5.32
2023-04-22T17:49:23.313Z,5.75
2023-04-22T17:52:06.856Z,5.63
2023-04-22T17:54:54.428Z,3.10
2023-04-22T17:57:22.530Z,5.13
2023-04-22T18:00:15.240Z,3.85
2023-04-22T18:02:50.459Z,5.35
2023-04-22T18:05:44.736Z,5.03
2023-04-22T18:08:12.916Z,3.45
2023-04-22T18:10:59.545Z,5.00
2023-04-22T18:13:42.447Z,4.45
2023-04-22T18:16:13.589Z,5.82
2023-04-22T18:18:54.448Z,5.32
2023-04-22T18:21:32.840Z,6.10
2023-04-22T18:24:19.605Z,8.27
2023-04-22T18:26:50.993Z,4.38
2023-04-22T18:29:31.386Z,5.22
2023-04-22T18:32:03.446Z,4.72
2023-04-22T18:34:32.694Z,5.15
2023-04-22T18:37:13.219Z,9.60
2023-04-22T18:39:41.453Z,5.60
2023-04-22T18:42:18.516Z,7.50
2023-04-22T18:45:05.010Z,3.88
2023-04-22T18:47:36.450Z,3.83
2023-04-22T18:52:37.230Z,4.55
2023-04-22T18:55:05.555Z,5.00
2023-04-22T18:58:06.717Z,5.25
2023-04-22T19:01:00.659Z,4.68
2023-04-22T19:03:41.183Z,10.60
2023-04-22T19:06:13.823Z,3.87
2023-04-22T19:08:50.257Z,5.95
2023-04-22T19:11:23.321Z,6.95
2023-04-22T19:13:54.577Z,4.32
2023-04-22T19:16:36.069Z,9.45
2023-04-22T19:19:13.786Z,7.05
2023-04-22T19:21:47.156Z,4.97
2023-04-22T19:24:17.992Z,6.55
2023-04-22T19:26:59.934Z,5.40
2023-04-22T19:29:30.383Z,6.50
2023-04-22T19:32:02.049Z,5.30
2023-04-22T19:34:38.247Z,3.78
2023-04-22T19:37:11.348Z,6.78
2023-04-22T19:39:39.841Z,3.65
2023-04-22T19:42:13.312Z,5.78
2023-04-22T19:45:17.237Z,4.32
2023-04-22T19:48:08.613Z,4.22
2023-04-22T19:51:00.394Z,4.15
2023-04-22T19:53:31.718Z,6.80
2023-04-22T19:58:41.129Z,4.10
2023-04-22T20:01:10.408Z,5.20
2023-04-22T20:03:49.827Z,16.23
2023-04-22T20:06:25.509Z,6.88
2023-04-22T20:09:01.363Z,9.27
2023-04-22T20:11:36.357Z,7.88
2023-04-22T20:14:06.668Z,11.45
2023-04-22T20:16:35.896Z,12.95
2023-04-22T20:19:47.124Z,8.63
2023-04-22T20:22:16.233Z,10.73
2023-04-22T20:24:45.704Z,11.02
2023-04-22T20:27:15.128Z,8.88
2023-04-22T20:30:05.500Z,7.65
2023-04-22T20:32:43.908Z,8.32
2023-04-22T20:35:38.587Z,10.38
2023-04-22T20:38:10.766Z,12.35
2023-04-22T20:40:50.283Z,7.72
2023-04-22T20:43:31.850Z,6.82
2023-04-22T20:46:24.089Z,8.43
2023-04-22T20:48:54.033Z,11.15
2023-04-22T20:51:23.145Z,8.68
2023-04-22T20:54:28.658Z,9.00
2023-04-22T20:57:07.830Z,9.40
2023-04-22T20:59:48.334Z,12.13
2023-04-22T21:02:18.121Z,10.93
2023-04-22T21:04:49.078Z,16.05
2023-04-22T21:07:25.773Z,8.48
2023-04-22T21:09:56.223Z,11.23
2023-04-22T21:12:34.298Z,10.70
2023-04-22T21:15:10.779Z,14.57
2023-04-22T21:18:04.350Z,10.57
2023-04-22T21:20:43.255Z,8.30
2023-04-22T21:23:12.766Z,8.18
2023-04-22T21:25:59.984Z,9.27
2023-04-22T21:28:38.491Z,8.55
2023-04-22T21:31:15.685Z,6.97
2023-04-22T21:33:56.927Z,8.75
2023-04-22T21:36:32.210Z,8.15
2023-04-22T21:39:01.490Z,9.18
2023-04-22T21:41:29.888Z,11.35
2023-04-22T21:44:03.217Z,17.63
2023-04-22T21:46:35.367Z,9.68
2023-04-22T21:49:06.776Z,6.97
2023-04-22T21:54:06.295Z,7.60
2023-04-22T21:56:35.552Z,8.57
2023-04-22T21:59:03.698Z,9.63
2023-04-22T22:01:53.933Z,8.15
2023-04-22T22:04:34.449Z,14.05
2023-04-22T22:07:07.068Z,11.40
2023-04-22T22:09:35.079Z,13.38
2023-04-22T22:12:32.280Z,12.95
2023-04-22T22:15:18.883Z,10.30
2023-04-22T22:17:58.311Z,9.93
2023-04-22T22:20:28.453Z,10.07
2023-04-22T22:23:33.806Z,8.48
2023-04-22T22:26:07.069Z,13.52
2023-04-22T22:28:52.325Z,10.05
2023-04-22T22:31:23.432Z,7.97
2023-04-22T22:34:02.602Z,8.18
2023-04-22T22:36:34.490Z,7.57
2023-04-22T22:39:02.714Z,10.15
2023-04-22T22:41:57.617Z,10.40
2023-04-22T22:44:42.269Z,9.00
2023-04-22T22:47:15.452Z,11.20
2023-04-22T22:52:56.216Z,9.27
2023-04-22T22:55:35.316Z,8.68
2023-04-22T22:58:07.296Z,8.18
2023-04-22T23:00:39.466Z,10.18
2023-04-22T23:03:10.051Z,10.32
2023-04-22T23:05:53.802Z,7.78
2023-04-22T23:08:40.712Z,9.07
2023-04-22T23:11:09.007Z,10.05
2023-04-22T23:13:38.182Z,8.90
2023-04-22T23:16:17.080Z,12.02
2023-04-22T23:18:49.021Z,9.55
2023-04-22T23:21:39.784Z,6.88
2023-04-22T23:24:24.763Z,9.50
2023-04-22T23:27:22.296Z,7.97
2023-04-22T23:30:05.984Z,7.43
2023-04-22T23:32:44.219Z,9.40
2023-04-22T23:35:20.771Z,8.80
2023-04-22T23:37:54.190Z,8.57
2023-04-22T23:40:22.516Z,7.75
2023-04-22T23:42:56.680Z,6.93
2023-04-22T23:45:24.874Z,6.97
2023-04-22T23:48:08.944Z,9.55
2023-04-22T23:50:41.047Z,7.50
2023-04-22T23:53:43.245Z,7.72
2023-04-22T23:56:13.012Z,7.53
2023-04-22T23:58:44.485Z,8.90
